Time;durP1;ratioP1;P1;durP2;ratioP2;P2;SDS_P1;SDS_P2;PMS_P1;PMS_P2;Temp;Humidity;BMP_temperature;BMP_pressure;BME280_temperature;BME280_humidity;BME280_pressure;Samples;Min_cycle;Max_cycle;Signal;HPM_P1;HPM_P2
2022/12/07 00:01:11;;;;;;;7.65;1.10;;;3.70;99.90;;;;;;5024046;28;20053;-70
2022/12/07 00:03:37;;;;;;;7.43;1.00;;;3.60;99.90;;;;;;5008872;28;20053;-70
2022/12/07 00:06:05;;;;;;;5.07;0.75;;;3.60;99.90;;;;;;5040161;28;20195;-70
2022/12/07 00:08:32;;;;;;;11.50;1.80;;;3.60;99.90;;;;;;5034562;28;20128;-70
2022/12/07 00:11:09;;;;;;;5.45;1.13;;;3.60;99.90;;;;;;5023753;28;20053;-70
2022/12/07 00:13:35;;;;;;;8.80;1.10;;;3.50;99.90;;;;;;5008268;28;20452;-71
2022/12/07 00:16:13;;;;;;;11.13;1.20;;;3.60;99.90;;;;;;5040107;28;20094;-70
2022/12/07 00:18:39;;;;;;;10.38;1.23;;;3.50;99.90;;;;;;5041639;28;20069;-70
2022/12/07 00:21:25;;;;;;;8.43;1.25;;;3.50;99.90;;;;;;5006757;28;20045;-70
2022/12/07 00:23:53;;;;;;;10.15;1.05;;;3.50;99.90;;;;;;5041045;28;20080;-71
2022/12/07 00:26:23;;;;;;;10.75;1.13;;;3.60;99.90;;;;;;5025535;28;20075;-71
2022/12/07 00:28:55;;;;;;;2.57;0.73;;;3.60;99.90;;;;;;5022295;28;20366;-71
2022/12/07 00:31:25;;;;;;;7.30;1.00;;;3.70;99.90;;;;;;5023661;28;20303;-71
2022/12/07 00:33:51;;;;;;;7.85;1.00;;;3.80;99.90;;;;;;5008656;28;20037;-71
2022/12/07 00:36:19;;;;;;;5.93;1.33;;;3.80;99.90;;;;;;5023118;28;20054;-69
2022/12/07 00:38:45;;;;;;;7.15;0.82;;;3.80;99.90;;;;;;5022208;28;20046;-70
2022/12/07 00:41:16;;;;;;;4.78;0.60;;;3.80;99.90;;;;;;5004634;28;20704;-72
2022/12/07 00:43:43;;;;;;;;;;;3.80;99.90;;;;;;5038900;28;20469;-70
2022/12/07 00:46:09;;;;;;;3.17;0.63;;;3.80;99.90;;;;;;5022942;28;20412;-70
2022/12/07 00:48:35;;;;;;;4.38;0.80;;;3.80;99.90;;;;;;5025813;28;20048;-71
2022/12/07 00:51:02;;;;;;;4.28;0.70;;;3.80;99.90;;;;;;5025658;28;20041;-71
2022/12/07 00:53:29;;;;;;;13.68;1.15;;;3.80;99.90;;;;;;5024139;28;20073;-71
2022/12/07 00:55:55;;;;;;;7.03;0.73;;;3.80;99.90;;;;;;5027448;28;20120;-70
2022/12/07 00:58:22;;;;;;;3.05;0.57;;;3.80;99.90;;;;;;5024702;28;20052;-70
2022/12/07 01:00:48;;;;;;;7.63;1.05;;;3.80;99.90;;;;;;5024320;28;20233;-70
2022/12/07 01:03:15;;;;;;;6.70;0.63;;;4.00;99.90;;;;;;5022875;28;20049;-69
2022/12/07 01:05:53;;;;;;;11.65;1.15;;;3.90;99.90;;;;;;5024464;28;20148;-70
2022/12/07 01:08:19;;;;;;;7.30;0.85;;;3.90;99.90;;;;;;5023272;28;20161;-72
2022/12/07 01:10:45;;;;;;;13.65;1.27;;;3.80;99.90;;;;;;5025314;28;20132;-70
2022/12/07 01:13:11;;;;;;;7.82;0.88;;;3.80;99.90;;;;;;5023434;28;20503;-70
2022/12/07 01:15:44;;;;;;;5.70;0.95;;;3.80;99.90;;;;;;5007597;28;20057;-70
2022/12/07 01:18:10;;;;;;;9.70;0.85;;;3.80;99.90;;;;;;5037408;28;20471;-70
2022/12/07 01:20:36;;;;;;;8.90;0.93;;;3.80;99.90;;;;;;5036886;28;20127;-70
2022/12/07 01:23:03;;;;;;;11.85;1.67;;;3.80;99.90;;;;;;5038632;28;20509;-70
2022/12/07 01:25:31;;;;;;;8.27;1.10;;;3.80;99.90;;;;;;5039012;28;20052;-70
2022/12/07 01:27:57;;;;;;;7.15;1.13;;;3.90;99.90;;;;;;5037887;28;20099;-70
2022/12/07 01:30:23;;;;;;;12.07;1.38;;;3.80;99.90;;;;;;5039453;28;20046;-71
2022/12/07 01:32:49;;;;;;;9.18;1.13;;;3.90;99.90;;;;;;5039695;28;20400;-70
2022/12/07 01:35:15;;;;;;;6.45;1.17;;;4.00;99.90;;;;;;5024137;28;20048;-70
2022/12/07 01:37:40;;;;;;;13.25;1.05;;;3.90;99.90;;;;;;5036195;28;20048;-71
2022/12/07 01:40:07;;;;;;;10.05;1.10;;;3.90;99.90;;;;;;5026221;28;20047;-70
2022/12/07 01:42:34;;;;;;;8.40;1.02;;;3.90;99.90;;;;;;5025059;28;20056;-70
2022/12/07 01:45:18;;;;;;;10.55;1.73;;;3.90;99.90;;;;;;5023348;28;20049;-70
2022/12/07 01:47:56;;;;;;;9.30;1.23;;;3.90;99.90;;;;;;5039950;28;20045;-70
2022/12/07 01:50:26;;;;;;;8.57;1.33;;;3.90;99.90;;;;;;5021620;28;20049;-70
2022/12/07 01:52:55;;;;;;;7.80;1.08;;;4.10;99.90;;;;;;5009390;28;20064;-70
2022/12/07 01:55:21;;;;;;;7.20;0.90;;;3.80;99.90;;;;;;5021575;28;20171;-71
2022/12/07 01:57:50;;;;;;;5.22;0.80;;;3.80;99.90;;;;;;5042904;28;20045;-71
2022/12/07 02:00:17;;;;;;;12.75;1.13;;;3.80;99.90;;;;;;5004161;28;20049;-70
2022/12/07 02:02:52;;;;;;;11.32;1.33;;;3.80;99.90;;;;;;5025386;28;20084;-71
2022/12/07 02:05:19;;;;;;;8.90;1.20;;;3.80;99.90;;;;;;5020111;28;20449;-73
2022/12/07 02:07:47;;;;;;;5.30;1.00;;;3.80;99.90;;;;;;5008143;28;20052;-73
2022/12/07 02:10:24;;;;;;;8.52;1.20;;;3.80;99.90;;;;;;5026776;28;20717;-73
2022/12/07 02:12:55;;;;;;;14.00;1.10;;;3.80;99.90;;;;;;5026757;28;20084;-73
2022/12/07 02:15:26;;;;;;;9.85;1.02;;;3.90;99.90;;;;;;5025251;28;20531;-75
2022/12/07 02:18:07;;;;;;;11.53;1.43;;;3.90;99.90;;;;;;5026645;28;20486;-73
2022/12/07 02:20:57;;;;;;;9.15;1.35;;;3.90;99.90;;;;;;5006646;28;20049;-74
2022/12/07 02:24:04;;;;;;;11.77;1.27;;;3.90;99.90;;;;;;5010326;28;20562;-73
2022/12/07 02:26:45;;;;;;;10.35;1.08;;;3.90;99.90;;;;;;5015169;28;20065;-73
2022/12/07 02:29:23;;;;;;;6.18;1.17;;;3.90;99.90;;;;;;5027415;28;20042;-73
2022/12/07 02:31:53;;;;;;;12.25;1.33;;;4.20;99.90;;;;;;5043726;28;20045;-72
2022/12/07 02:34:26;;;;;;;9.90;1.50;;;4.00;99.90;;;;;;5008754;28;20502;-73
2022/12/07 02:37:00;;;;;;;6.78;1.42;;;3.90;99.90;;;;;;5042910;28;20444;-73
2022/12/07 02:39:43;;;;;;;10.85;1.08;;;4.00;99.90;;;;;;5026266;28;20049;-73
2022/12/07 02:42:30;;;;;;;9.73;0.88;;;4.00;99.90;;;;;;5026323;28;20564;-73
2022/12/07 02:44:56;;;;;;;4.88;0.98;;;4.00;99.90;;;;;;5027588;28;20045;-72
2022/12/07 02:47:24;;;;;;;9.45;0.85;;;4.00;99.90;;;;;;5026087;28;20045;-73
2022/12/07 02:49:51;;;;;;;9.05;0.95;;;4.00;99.90;;;;;;5008947;28;20461;-73
2022/12/07 02:52:16;;;;;;;11.07;0.75;;;4.10;99.90;;;;;;5026480;28;20113;-74
2022/12/07 02:54:42;;;;;;;5.63;0.93;;;4.00;99.90;;;;;;5024213;28;20125;-72
2022/12/07 02:57:14;;;;;;;5.38;0.80;;;3.90;99.90;;;;;;5027283;28;20124;-72
2022/12/07 02:59:39;;;;;;;;;;;3.90;99.90;;;;;;5041849;28;20041;-73
2022/12/07 03:02:12;;;;;;;6.03;1.10;;;3.90;99.90;;;;;;5024470;28;20337;-72
2022/12/07 03:05:00;;;;;;;7.32;0.80;;;3.90;99.90;;;;;;5026281;28;20049;-73
2022/12/07 03:07:53;;;;;;;11.93;0.90;;;3.90;99.90;;;;;;5011262;28;20655;-73
2022/12/07 03:10:47;;;;;;;7.65;0.88;;;3.90;99.90;;;;;;5022735;28;20206;-73
2022/12/07 03:13:41;;;;;;;9.45;1.00;;;3.90;99.90;;;;;;5009060;28;20376;-74
2022/12/07 03:16:30;;;;;;;10.60;1.52;;;3.90;99.90;;;;;;5025074;28;20115;-73
2022/12/07 03:19:03;;;;;;;6.78;1.00;;;3.90;99.90;;;;;;5009480;28;20060;-73
2022/12/07 03:21:49;;;;;;;8.40;0.85;;;3.80;99.90;;;;;;5025237;28;20073;-74
2022/12/07 03:24:24;;;;;;;9.32;0.88;;;3.80;99.90;;;;;;5022484;28;20057;-73
2022/12/07 03:27:04;;;;;;;6.15;0.73;;;4.10;99.90;;;;;;5026118;28;20507;-73
2022/12/07 03:29:36;;;;;;;9.88;0.93;;;3.80;99.90;;;;;;5039133;28;20471;-72
2022/12/07 03:32:07;;;;;;;7.97;0.98;;;3.80;99.90;;;;;;5023149;28;20041;-73
2022/12/07 03:34:51;;;;;;;7.05;1.17;;;3.80;99.90;;;;;;5026572;28;20076;-73
2022/12/07 03:37:47;;;;;;;6.13;0.90;;;3.80;99.90;;;;;;5020194;28;20059;-73
2022/12/07 03:40:22;;;;;;;6.38;1.00;;;3.80;99.90;;;;;;4999449;28;20049;-72
2022/12/07 03:42:49;;;;;;;10.50;1.63;;;3.80;99.90;;;;;;5022342;28;20152;-72
2022/12/07 03:45:15;;;;;;;9.05;1.10;;;3.70;99.90;;;;;;5042486;28;20049;-73
2022/12/07 03:48:08;;;;;;;9.88;1.15;;;3.80;99.90;;;;;;5009314;28;20045;-72
2022/12/07 03:51:24;;;;;;;9.05;1.23;;;3.70;99.90;;;;;;5022931;28;20455;-73
2022/12/07 03:54:05;;;;;;;8.07;1.38;;;3.70;99.90;;;;;;5000397;28;20115;-73
2022/12/07 03:56:32;;;;;;;10.40;1.00;;;3.80;99.90;;;;;;5040691;28;20041;-73
2022/12/07 03:58:58;;;;;;;3.53;0.57;;;4.30;99.90;;;;;;5043000;28;20076;-73
2022/12/07 04:01:24;;;;;;;10.27;0.90;;;3.70;99.90;;;;;;5008673;28;20050;-73
2022/12/07 04:03:50;;;;;;;6.32;0.80;;;3.70;99.90;;;;;;5040082;28;20378;-73
2022/12/07 04:06:16;;;;;;;8.00;1.13;;;3.60;99.90;;;;;;5009997;28;20045;-72
2022/12/07 04:08:41;;;;;;;4.60;0.80;;;3.60;99.90;;;;;;5026444;28;20443;-72
2022/12/07 04:11:07;;;;;;;10.95;1.13;;;3.60;99.90;;;;;;5007719;28;20040;-72
2022/12/07 04:14:18;;;;;;;11.45;1.17;;;3.60;99.90;;;;;;5043207;28;20056;-73
2022/12/07 04:16:18;;;;;;;12.20;1.30;;;3.60;99.90;;;;;;5023996;28;20167;-73
2022/12/07 04:18:44;;;;;;;13.52;1.27;;;4.10;99.90;;;;;;5021230;28;20132;-73
2022/12/07 04:21:10;;;;;;;15.38;1.08;;;3.60;99.90;;;;;;5011716;28;20046;-73
2022/12/07 04:23:36;;;;;;;10.13;1.80;;;3.60;99.90;;;;;;5010521;28;20037;-72
2022/12/07 04:26:02;;;;;;;7.00;0.57;;;3.60;99.90;;;;;;5040129;28;20395;-72
2022/12/07 04:28:27;;;;;;;8.90;0.90;;;3.60;99.90;;;;;;5037658;28;20100;-73
2022/12/07 04:30:53;;;;;;;4.78;1.27;;;3.60;99.90;;;;;;5023627;28;20432;-73
2022/12/07 04:33:19;;;;;;;3.45;0.50;;;3.60;99.90;;;;;;5006536;28;20403;-74
2022/12/07 04:35:44;;;;;;;7.57;0.70;;;3.60;99.90;;;;;;5035925;28;20057;-71
2022/12/07 04:38:10;;;;;;;3.95;0.63;;;3.60;99.90;;;;;;5039289;28;20083;-72
2022/12/07 04:40:36;;;;;;;5.65;0.90;;;3.70;99.90;;;;;;5022562;28;20082;-72
2022/12/07 04:43:02;;;;;;;10.55;1.42;;;3.60;99.90;;;;;;5023667;28;20038;-72
2022/12/07 04:45:27;;;;;;;9.23;1.00;;;3.60;99.90;;;;;;5024434;28;20045;-72
2022/12/07 04:47:53;;;;;;;7.25;0.90;;;3.60;99.90;;;;;;5006259;28;20045;-72
2022/12/07 04:50:19;;;;;;;8.40;0.90;;;3.70;99.90;;;;;;5038455;28;20049;-73
2022/12/07 04:52:44;;;;;;;7.35;0.80;;;3.60;99.90;;;;;;5042506;28;20045;-72
2022/12/07 04:55:10;;;;;;;6.15;0.73;;;3.60;99.90;;;;;;5007665;28;20049;-73
2022/12/07 04:57:36;;;;;;;3.70;1.02;;;3.60;99.90;;;;;;5025144;28;20502;-71
2022/12/07 05:00:02;;;;;;;4.45;0.82;;;3.60;99.90;;;;;;5023868;28;20065;-73
2022/12/07 05:02:29;;;;;;;5.28;0.75;;;3.60;99.90;;;;;;5023582;28;20080;-72
2022/12/07 05:04:54;;;;;;;5.30;1.02;;;3.50;99.90;;;;;;5021402;28;20052;-71
2022/12/07 05:07:20;;;;;;;4.60;0.88;;;3.50;99.90;;;;;;5026028;28;20041;-73
2022/12/07 05:09:46;;;;;;;5.68;0.75;;;3.50;99.90;;;;;;5039294;28;20052;-73
2022/12/07 05:12:11;;;;;;;4.43;0.35;;;3.50;99.90;;;;;;5024603;28;20073;-72
2022/12/07 05:14:37;;;;;;;5.18;0.73;;;3.60;99.90;;;;;;5023906;28;20041;-73
2022/12/07 05:17:04;;;;;;;5.13;0.63;;;3.40;99.90;;;;;;5037407;28;20051;-74
2022/12/07 05:19:30;;;;;;;4.57;0.70;;;3.60;99.90;;;;;;5025264;28;20037;-72
2022/12/07 05:21:55;;;;;;;7.63;0.73;;;3.70;99.90;;;;;;5006227;28;20048;-72
2022/12/07 05:24:21;;;;;;;4.15;0.60;;;3.30;99.90;;;;;;5023570;28;20045;-72
2022/12/07 05:26:47;;;;;;;7.65;1.00;;;3.20;99.90;;;;;;5038887;28;20046;-72
2022/12/07 05:29:15;;;;;;;3.55;0.82;;;3.20;99.90;;;;;;5021678;28;20049;-72
2022/12/07 05:31:41;;;;;;;5.47;0.90;;;3.10;99.90;;;;;;5006947;28;20049;-70
2022/12/07 05:34:06;;;;;;;7.32;0.90;;;3.10;99.90;;;;;;5021748;28;20119;-69
2022/12/07 05:36:32;;;;;;;12.15;1.08;;;3.10;99.90;;;;;;5040094;28;20045;-68
2022/12/07 05:39:02;;;;;;;9.20;1.00;;;3.10;99.90;;;;;;5024189;28;20089;-71
2022/12/07 05:44:12;;;;;;;6.43;1.30;;;3.60;99.90;;;;;;5015773;28;20045;-71
2022/12/07 05:46:37;;;;;;;7.32;1.10;;;3.10;99.90;;;;;;5021449;28;20048;-70
2022/12/07 05:49:03;;;;;;;10.75;1.27;;;3.10;99.90;;;;;;5024809;28;20041;-70
2022/12/07 05:51:29;;;;;;;7.22;0.75;;;3.00;99.90;;;;;;5001375;28;20045;-70
2022/12/07 05:53:55;;;;;;;9.38;1.23;;;3.10;99.90;;;;;;5019355;28;20179;-71
2022/12/07 05:56:21;;;;;;;6.15;0.93;;;3.10;99.90;;;;;;5017979;28;20463;-71
2022/12/07 06:01:31;;;;;;;7.13;1.08;;;3.10;99.90;;;;;;5022348;28;20060;-70
2022/12/07 06:03:56;;;;;;;8.30;0.90;;;3.20;99.90;;;;;;5000367;28;20045;-70
2022/12/07 06:06:22;;;;;;;8.70;0.80;;;3.60;99.90;;;;;;4998963;28;20041;-70
2022/12/07 06:08:48;;;;;;;9.15;0.95;;;3.10;99.90;;;;;;5001762;28;20073;-70
2022/12/07 06:14:00;;;;;;;10.80;1.20;;;3.60;99.90;;;;;;5001797;28;20053;-70
2022/12/07 06:16:26;;;;;;;4.30;0.70;;;3.40;99.90;;;;;;4992253;28;20553;-70
2022/12/07 06:18:52;;;;;;;8.23;1.40;;;3.00;99.90;;;;;;4996813;28;20050;-70
2022/12/07 06:21:17;;;;;;;9.32;1.00;;;3.30;99.90;;;;;;5000389;28;20056;-70
2022/12/07 06:23:43;;;;;;;6.53;0.77;;;3.00;99.90;;;;;;5009599;28;20048;-71
2022/12/07 06:26:09;;;;;;;6.40;0.63;;;3.40;99.90;;;;;;5016886;28;20053;-70
2022/12/07 06:28:34;;;;;;;5.10;0.70;;;3.10;99.90;;;;;;5010715;28;20079;-70
2022/12/07 06:31:01;;;;;;;4.78;0.80;;;3.20;99.90;;;;;;4998218;28;20473;-70
2022/12/07 06:33:29;;;;;;;7.88;1.05;;;3.10;99.90;;;;;;5016698;28;20647;-70
2022/12/07 06:35:55;;;;;;;10.48;0.90;;;3.10;99.90;;;;;;5013080;28;20093;-70
2022/12/07 06:38:21;;;;;;;9.38;0.85;;;3.10;99.90;;;;;;4990753;28;20443;-71
2022/12/07 06:40:48;;;;;;;6.43;0.60;;;3.10;99.90;;;;;;5008965;28;20129;-71
2022/12/07 06:43:13;;;;;;;7.88;1.48;;;3.10;99.90;;;;;;5015667;28;20045;-70
2022/12/07 06:45:40;;;;;;;5.85;0.80;;;3.10;99.90;;;;;;5013425;28;20124;-71
2022/12/07 06:48:06;;;;;;;7.47;1.25;;;3.10;99.90;;;;;;5013401;28;20053;-70
2022/12/07 06:50:32;;;;;;;8.00;1.00;;;3.10;99.90;;;;;;5017124;28;20064;-71
2022/12/07 06:53:01;;;;;;;8.52;1.52;;;3.10;99.90;;;;;;5020353;28;20724;-70
2022/12/07 06:55:26;;;;;;;9.57;1.00;;;3.10;99.90;;;;;;5022395;28;20498;-69
2022/12/07 06:57:52;;;;;;;6.90;1.23;;;3.00;99.90;;;;;;5022654;28;20041;-69
2022/12/07 07:00:18;;;;;;;5.28;0.85;;;3.00;99.90;;;;;;5002441;28;20057;-69
2022/12/07 07:02:44;;;;;;;6.28;1.10;;;3.00;99.90;;;;;;5019815;28;20651;-69
2022/12/07 07:05:10;;;;;;;4.78;0.90;;;3.00;99.90;;;;;;5002729;28;20158;-70
2022/12/07 07:07:35;;;;;;;10.20;1.13;;;3.00;99.90;;;;;;5018503;28;20050;-70
2022/12/07 07:10:01;;;;;;;5.68;1.10;;;3.00;99.90;;;;;;5019243;28;20053;-70
2022/12/07 07:12:27;;;;;;;6.20;1.50;;;3.00;99.90;;;;;;5021480;28;20233;-70
2022/12/07 07:14:53;;;;;;;11.77;1.70;;;2.90;99.90;;;;;;5004122;28;20081;-70
2022/12/07 07:17:18;;;;;;;9.63;1.27;;;3.00;99.90;;;;;;5023304;28;20095;-71
2022/12/07 07:19:44;;;;;;;15.65;1.63;;;2.90;99.90;;;;;;5007868;28;20059;-70
2022/12/07 07:22:10;;;;;;;12.40;1.88;;;3.00;99.90;;;;;;5022064;28;21246;-69
2022/12/07 07:24:35;;;;;;;7.30;1.02;;;2.90;99.90;;;;;;5022171;28;20049;-69
2022/12/07 07:27:01;;;;;;;8.63;1.63;;;3.00;99.90;;;;;;5006903;28;20085;-70
2022/12/07 07:29:27;;;;;;;13.77;1.60;;;2.90;99.90;;;;;;5037749;28;20041;-69
2022/12/07 07:31:52;;;;;;;12.30;1.40;;;2.90;99.90;;;;;;5022441;28;20041;-69
2022/12/07 07:34:20;;;;;;;8.23;1.30;;;2.90;99.90;;;;;;5022733;28;20049;-70
2022/12/07 07:36:46;;;;;;;9.90;1.02;;;2.90;99.90;;;;;;5020028;28;20134;-70
2022/12/07 07:39:12;;;;;;;9.13;1.35;;;2.90;99.90;;;;;;5018460;28;21066;-70
2022/12/07 07:41:38;;;;;;;6.03;1.27;;;2.90;99.90;;;;;;5019501;28;20110;-70
2022/12/07 07:44:04;;;;;;;9.52;1.45;;;2.90;99.90;;;;;;5022174;28;20081;-71
2022/12/07 07:46:30;;;;;;;9.10;1.75;;;2.90;99.90;;;;;;5004651;28;20694;-71
2022/12/07 07:48:55;;;;;;;7.07;1.30;;;2.90;99.90;;;;;;5036381;28;20588;-71
2022/12/07 07:51:21;;;;;;;7.40;1.00;;;2.90;99.90;;;;;;5018652;28;20051;-73
2022/12/07 07:53:47;;;;;;;12.50;1.55;;;2.90;99.90;;;;;;5022241;28;20084;-73
2022/12/07 07:56:13;;;;;;;7.78;1.30;;;2.80;99.90;;;;;;5005033;28;20483;-73
2022/12/07 07:58:39;;;;;;;5.85;1.20;;;2.80;99.90;;;;;;5018439;28;20534;-73
2022/12/07 08:01:06;;;;;;;7.30;1.30;;;2.80;99.90;;;;;;5021066;28;20056;-72
2022/12/07 08:03:32;;;;;;;10.30;1.55;;;2.70;99.90;;;;;;5005967;28;20049;-72
2022/12/07 08:05:58;;;;;;;9.45;1.20;;;2.70;99.90;;;;;;5017047;28;20161;-73
2022/12/07 08:08:23;;;;;;;6.25;1.30;;;2.70;99.90;;;;;;5019764;28;20307;-73
2022/12/07 08:10:50;;;;;;;11.07;1.77;;;3.50;99.90;;;;;;5014967;28;20049;-74
2022/12/07 08:13:16;;;;;;;10.45;1.40;;;2.70;99.90;;;;;;5010991;28;20094;-72
2022/12/07 08:15:45;;;;;;;8.18;1.35;;;2.70;99.90;;;;;;4998109;28;20531;-72
2022/12/07 08:18:11;;;;;;;9.60;2.42;;;2.70;99.90;;;;;;5014776;28;20045;-72
2022/12/07 08:20:38;;;;;;;6.63;1.45;;;2.70;99.90;;;;;;5018044;28;20049;-72
2022/12/07 08:23:05;;;;;;;6.72;1.40;;;2.70;99.90;;;;;;5020764;28;20743;-72
2022/12/07 08:25:32;;;;;;;10.90;1.90;;;2.70;99.90;;;;;;5002706;28;20102;-73
2022/12/07 08:28:02;;;;;;;10.68;1.60;;;2.70;99.90;;;;;;5020057;28;20060;-73
2022/12/07 08:30:29;;;;;;;6.90;2.00;;;2.70;99.90;;;;;;5014330;28;20506;-73
2022/12/07 08:32:55;;;;;;;11.25;1.60;;;2.90;99.90;;;;;;5015388;28;20049;-73
2022/12/07 08:35:21;;;;;;;12.52;1.65;;;2.70;99.90;;;;;;5016945;28;20049;-73
2022/12/07 08:37:48;;;;;;;9.75;1.77;;;2.70;99.90;;;;;;5022123;28;20057;-73
2022/12/07 08:40:18;;;;;;;11.32;1.98;;;2.70;99.90;;;;;;5020677;28;20057;-74
2022/12/07 08:42:48;;;;;;;15.35;1.88;;;2.80;99.90;;;;;;5020747;28;20049;-73
2022/12/07 08:45:15;;;;;;;13.63;1.95;;;2.70;99.90;;;;;;5022107;28;20388;-71
2022/12/07 08:47:47;;;;;;;18.38;2.50;;;2.80;99.90;;;;;;5018223;28;20132;-74
2022/12/07 08:50:13;;;;;;;8.10;2.00;;;2.80;99.90;;;;;;5019998;28;20037;-74
2022/12/07 08:52:40;;;;;;;10.07;1.75;;;2.80;99.90;;;;;;5020538;28;20049;-74
2022/12/07 08:55:08;;;;;;;14.13;2.08;;;2.90;99.90;;;;;;5003040;28;20061;-72
2022/12/07 08:57:35;;;;;;;8.95;1.67;;;2.90;99.90;;;;;;5019602;28;20057;-72
2022/12/07 09:00:01;;;;;;;9.60;1.58;;;3.00;99.90;;;;;;5019928;28;20044;-73
2022/12/07 09:02:26;;;;;;;16.30;1.88;;;3.00;99.90;;;;;;5018916;28;20049;-73
2022/12/07 09:04:52;;;;;;;11.73;1.45;;;3.10;99.90;;;;;;5000278;28;20037;-74
2022/12/07 09:07:18;;;;;;;11.13;1.65;;;3.10;99.90;;;;;;5020051;28;20056;-73
2022/12/07 09:09:44;;;;;;;19.83;1.83;;;3.10;99.90;;;;;;5021000;28;20164;-73
2022/12/07 09:12:10;;;;;;;10.45;1.38;;;3.20;99.90;;;;;;5020881;28;20033;-73
2022/12/07 09:14:36;;;;;;;7.35;1.45;;;3.30;99.90;;;;;;5019604;28;20049;-71
2022/12/07 09:17:09;;;;;;;9.15;1.48;;;3.30;99.90;;;;;;5022820;28;20045;-72
2022/12/07 09:19:35;;;;;;;14.35;1.48;;;3.30;99.90;;;;;;5019713;28;20041;-71
2022/12/07 09:22:01;;;;;;;12.93;1.65;;;3.40;99.90;;;;;;5019991;28;20545;-72
2022/12/07 09:24:27;;;;;;;11.55;1.33;;;3.60;99.90;;;;;;5004161;28;20052;-72
2022/12/07 09:26:53;;;;;;;7.53;1.40;;;3.40;99.90;;;;;;5020432;28;20053;-73
2022/12/07 09:29:18;;;;;;;11.55;1.08;;;3.50;99.90;;;;;;5017303;28;20042;-74
2022/12/07 09:31:45;;;;;;;10.73;1.27;;;3.50;99.90;;;;;;5016019;28;20095;-71
2022/12/07 09:34:10;;;;;;;11.00;1.27;;;3.50;99.90;;;;;;5015896;28;20033;-70
2022/12/07 09:36:36;;;;;;;13.57;2.47;;;3.50;99.90;;;;;;4996939;28;20061;-69
2022/12/07 09:39:04;;;;;;;8.43;1.25;;;3.50;99.90;;;;;;5017878;28;20060;-70
2022/12/07 09:41:31;;;;;;;9.73;1.83;;;3.50;99.90;;;;;;5001124;28;20403;-70
2022/12/07 09:44:06;;;;;;;6.78;1.55;;;3.50;99.90;;;;;;5015092;28;20041;-70
2022/12/07 09:46:38;;;;;;;15.30;2.60;;;3.60;99.90;;;;;;5001406;28;20080;-71
2022/12/07 09:49:05;;;;;;;7.63;1.58;;;4.30;99.90;;;;;;5002048;28;20045;-69
2022/12/07 09:51:31;;;;;;;6.75;1.88;;;4.00;99.90;;;;;;5018643;28;20038;-69
2022/12/07 09:54:01;;;;;;;9.65;1.83;;;3.60;99.90;;;;;;5019210;28;20049;-70
2022/12/07 09:56:30;;;;;;;15.07;2.45;;;3.60;99.90;;;;;;5020293;28;20471;-69
2022/12/07 09:59:03;;;;;;;11.82;2.40;;;3.60;99.90;;;;;;5017758;28;20056;-69
2022/12/07 10:01:34;;;;;;;15.88;3.10;;;3.60;99.90;;;;;;5004006;28;20054;-70
2022/12/07 10:04:21;;;;;;;11.75;2.60;;;3.60;99.90;;;;;;5018813;28;20478;-70
2022/12/07 10:06:47;;;;;;;10.63;2.47;;;3.60;99.90;;;;;;5016623;28;20081;-69
2022/12/07 10:09:16;;;;;;;9.98;2.22;;;3.70;99.90;;;;;;4991194;28;20045;-71
2022/12/07 10:12:09;;;;;;;9.98;2.25;;;3.80;99.90;;;;;;5009484;28;20053;-69
2022/12/07 10:14:39;;;;;;;11.93;1.52;;;3.80;99.90;;;;;;5011584;28;20045;-70
2022/12/07 10:17:43;;;;;;;13.63;1.70;;;3.80;99.90;;;;;;5015152;28;20568;-71
2022/12/07 10:20:19;;;;;;;7.13;1.70;;;3.90;99.90;;;;;;4965768;28;20088;-71
2022/12/07 10:23:16;;;;;;;10.27;2.53;;;4.00;99.90;;;;;;5008953;28;20064;-72
2022/12/07 10:25:42;;;;;;;12.55;1.50;;;4.10;99.90;;;;;;5003850;28;20110;-70
2022/12/07 10:28:08;;;;;;;12.30;1.30;;;4.00;99.90;;;;;;5013043;28;20046;-70
2022/12/07 10:30:50;;;;;;;17.38;1.92;;;4.10;99.90;;;;;;5022344;28;20054;-70
2022/12/07 10:33:37;;;;;;;8.50;1.58;;;4.30;99.90;;;;;;5021604;28;20041;-71
2022/12/07 10:36:25;;;;;;;10.23;1.60;;;4.20;99.90;;;;;;5038426;28;20053;-70
2022/12/07 10:39:10;;;;;;;10.23;1.50;;;4.30;99.90;;;;;;4989237;28;20137;-70
2022/12/07 10:41:52;;;;;;;9.82;1.27;;;4.40;99.90;;;;;;5003115;28;20064;-70
2022/12/07 10:44:22;;;;;;;13.32;1.63;;;4.40;99.90;;;;;;4996734;28;20546;-71
2022/12/07 10:47:02;;;;;;;10.97;1.53;;;4.40;99.90;;;;;;5014582;28;20148;-69
2022/12/07 10:49:40;;;;;;;13.07;1.60;;;4.50;99.90;;;;;;5030508;28;20037;-69
2022/12/07 10:52:23;;;;;;;9.27;1.10;;;4.60;99.90;;;;;;4997750;28;20048;-69
2022/12/07 10:54:57;;;;;;;9.25;1.05;;;4.30;99.90;;;;;;5018648;28;20759;-69
2022/12/07 10:57:35;;;;;;;9.05;0.95;;;4.70;99.90;;;;;;5022664;28;20769;-70
2022/12/07 11:00:19;;;;;;;8.48;1.05;;;4.70;99.90;;;;;;5023671;28;20379;-71
2022/12/07 11:03:40;;;;;;;5.82;0.70;;;4.70;99.90;;;;;;5020047;28;20053;-71
2022/12/07 11:06:35;;;;;;;8.57;0.80;;;4.70;99.90;;;;;;4980794;28;20100;-70
2022/12/07 11:09:23;;;;;;;11.88;1.17;;;4.80;99.90;;;;;;5021335;28;20057;-70
2022/12/07 11:12:13;;;;;;;10.98;1.45;;;4.70;99.90;;;;;;5020710;28;20049;-71
2022/12/07 11:15:01;;;;;;;9.02;1.02;;;4.70;99.90;;;;;;5003968;28;20107;-70
2022/12/07 11:17:36;;;;;;;12.20;1.25;;;4.80;99.90;;;;;;5002372;28;20073;-70
2022/12/07 11:20:36;;;;;;;8.82;1.10;;;4.70;99.90;;;;;;5021413;28;20049;-70
2022/12/07 11:23:24;;;;;;;10.13;1.25;;;4.70;99.90;;;;;;5032675;28;20077;-70
2022/12/07 11:26:07;;;;;;;4.40;0.70;;;4.70;99.90;;;;;;5038840;28;20050;-69
2022/12/07 11:28:47;;;;;;;11.32;1.00;;;4.70;99.90;;;;;;5005062;28;20050;-70
2022/12/07 11:31:25;;;;;;;9.30;1.20;;;4.70;99.90;;;;;;5021388;28;20054;-69
2022/12/07 11:33:58;;;;;;;8.38;1.10;;;4.80;99.90;;;;;;5014724;28;20184;-69
2022/12/07 11:36:30;;;;;;;10.07;1.30;;;4.80;99.90;;;;;;5000689;28;20320;-70
2022/12/07 11:38:57;;;;;;;;;;;4.80;99.90;;;;;;5016427;28;20076;-71
2022/12/07 11:41:39;;;;;;;9.43;0.90;;;4.80;99.90;;;;;;5001515;28;19924;-71
2022/12/07 11:44:13;;;;;;;6.13;1.10;;;4.90;99.90;;;;;;5012179;28;20053;-71
2022/12/07 11:47:21;;;;;;;5.13;0.70;;;4.90;99.90;;;;;;5014788;28;20081;-70
2022/12/07 11:50:11;;;;;;;9.65;1.08;;;4.90;99.90;;;;;;4977538;28;20053;-70
2022/12/07 11:52:57;;;;;;;8.20;1.27;;;5.00;99.90;;;;;;5020208;28;20048;-71
2022/12/07 11:56:05;;;;;;;10.57;1.83;;;5.10;99.90;;;;;;5017882;28;20049;-69
2022/12/07 11:58:34;;;;;;;6.88;1.10;;;5.10;99.90;;;;;;5016728;28;20061;-70
2022/12/07 12:01:38;;;;;;;6.47;1.30;;;5.20;99.90;;;;;;4999253;28;20037;-71
2022/12/07 12:04:09;;;;;;;10.68;0.90;;;5.30;99.90;;;;;;4986061;28;20077;-69
2022/12/07 12:06:43;;;;;;;9.50;1.00;;;5.50;99.90;;;;;;5017923;28;20049;-69
2022/12/07 12:09:34;;;;;;;12.15;1.30;;;5.40;99.90;;;;;;5037127;28;20474;-70
2022/12/07 12:12:10;;;;;;;6.05;1.00;;;5.40;99.90;;;;;;5032169;28;20121;-70
2022/12/07 12:15:07;;;;;;;9.45;1.23;;;5.80;99.90;;;;;;5037395;28;20387;-70
2022/12/07 12:17:52;;;;;;;11.18;1.23;;;5.40;99.90;;;;;;5019745;28;20152;-71
2022/12/07 12:20:29;;;;;;;11.55;1.17;;;5.50;99.90;;;;;;5017279;28;20134;-70
2022/12/07 12:23:01;;;;;;;5.85;1.00;;;5.40;99.90;;;;;;5003142;28;20050;-71
2022/12/07 12:25:54;;;;;;;13.23;1.30;;;5.50;99.90;;;;;;5017814;28;20045;-71
2022/12/07 12:28:41;;;;;;;9.25;1.05;;;5.40;99.90;;;;;;5013063;28;20056;-70
2022/12/07 12:31:14;;;;;;;7.20;1.20;;;5.40;99.90;;;;;;5036072;28;20136;-69
2022/12/07 12:33:53;;;;;;;7.00;0.82;;;5.40;99.90;;;;;;5003324;28;20053;-69
2022/12/07 12:36:24;;;;;;;4.65;0.60;;;5.30;99.90;;;;;;5036094;28;20419;-70
2022/12/07 12:39:13;;;;;;;;;;;5.20;99.90;;;;;;5018214;28;20049;-71
2022/12/07 12:42:25;;;;;;;4.57;0.60;;;5.10;99.90;;;;;;5021647;28;20175;-69
2022/12/07 12:44:32;;;;;;;4.15;0.90;;;5.00;99.90;;;;;;5013082;28;20501;-70
2022/12/07 12:47:18;;;;;;;7.47;1.00;;;4.90;99.90;;;;;;5018821;28;20395;-71
2022/12/07 12:50:12;;;;;;;4.88;0.80;;;4.90;99.90;;;;;;4973299;28;20123;-69
2022/12/07 12:52:40;;;;;;;3.97;0.70;;;4.90;99.90;;;;;;5019794;28;20037;-72
2022/12/07 12:55:09;;;;;;;6.07;0.80;;;4.80;99.90;;;;;;5020217;28;20125;-70
2022/12/07 12:57:36;;;;;;;4.32;1.10;;;4.80;99.90;;;;;;5019921;28;20076;-70
2022/12/07 13:00:20;;;;;;;5.22;0.70;;;4.80;99.90;;;;;;5034926;28;20089;-70
2022/12/07 13:02:53;;;;;;;10.45;1.00;;;4.70;99.90;;;;;;5002042;28;20045;-70
2022/12/07 13:05:24;;;;;;;5.95;1.00;;;4.60;99.90;;;;;;5019416;28;20676;-71
2022/12/07 13:07:55;;;;;;;9.45;0.70;;;4.60;99.90;;;;;;5019967;28;20044;-70
2022/12/07 13:10:21;;;;;;;4.13;0.93;;;4.60;99.90;;;;;;5021370;28;20052;-70
2022/12/07 13:13:13;;;;;;;11.32;0.90;;;4.60;99.90;;;;;;5019478;28;20045;-71
2022/12/07 13:15:51;;;;;;;2.47;0.50;;;4.60;99.90;;;;;;5018510;28;20087;-71
2022/12/07 13:18:30;;;;;;;4.00;0.50;;;4.60;99.90;;;;;;5036531;28;20084;-71
2022/12/07 13:21:04;;;;;;;5.22;0.75;;;4.60;99.90;;;;;;5019201;28;20060;-69
2022/12/07 13:23:38;;;;;;;3.47;0.60;;;4.50;99.90;;;;;;5033778;28;20140;-69
2022/12/07 13:26:35;;;;;;;6.20;0.90;;;4.60;99.90;;;;;;5019861;28;20473;-70
2022/12/07 13:29:09;;;;;;;4.82;0.68;;;4.50;99.90;;;;;;5018097;28;20045;-69